Time;durP1;ratioP1;P1;durP2;ratioP2;P2;SDS_P1;SDS_P2;PMS_P1;PMS_P2;Temp;Humidity;BMP_temperature;BMP_pressure;BME280_temperature;BME280_humidity;BME280_pressure;Samples;Min_cycle;Max_cycle;Signal;HPM_P1;HPM_P2
2023/10/16 00:01:31;;;;;;;617.58;559.00;;;;;;;;;;6246105;23;20011;-94
2023/10/16 00:04:04;;;;;;;591.78;535.90;;;;;;;;;;6245839;23;20000;-94
2023/10/16 00:06:37;;;;;;;645.13;583.00;;;;;;;;;;6244656;23;20015;-94
2023/10/16 00:09:22;;;;;;;654.40;590.25;;;;;;;;;;6245622;23;20016;-95
2023/10/16 00:11:58;;;;;;;676.30;612.13;;;;;;;;;;6245255;23;20008;-93
2023/10/16 00:14:25;;;;;;;622.65;562.28;;;;;;;;;;6227822;23;20031;-94
2023/10/16 00:16:58;;;;;;;593.08;534.53;;;;;;;;;;6236362;23;20012;-94
2023/10/16 00:19:27;;;;;;;617.97;557.70;;;;;;;;;;6245663;23;20004;-94
2023/10/16 00:22:03;;;;;;;623.25;561.10;;;;;;;;;;6245255;23;20004;-94
2023/10/16 00:24:45;;;;;;;606.42;546.50;;;;;;;;;;6213862;23;20005;-94
2023/10/16 00:27:17;;;;;;;628.55;565.72;;;;;;;;;;6214716;23;20127;-93
2023/10/16 00:29:49;;;;;;;571.95;514.95;;;;;;;;;;6214323;23;20123;-94
2023/10/16 00:32:19;;;;;;;612.38;550.40;;;;;;;;;;6214396;23;20047;-94
2023/10/16 00:34:52;;;;;;;582.05;524.03;;;;;;;;;;6214322;23;20059;-94
2023/10/16 00:37:26;;;;;;;637.05;571.00;;;;;;;;;;6213466;23;20066;-94
2023/10/16 00:39:56;;;;;;;601.92;542.22;;;;;;;;;;6213209;23;20013;-94
2023/10/16 00:42:24;;;;;;;654.08;587.88;;;;;;;;;;6214556;23;20000;-95
2023/10/16 00:45:03;;;;;;;608.08;547.75;;;;;;;;;;6214363;23;20450;-94
2023/10/16 00:47:32;;;;;;;613.97;551.17;;;;;;;;;;6230188;23;20005;-94
2023/10/16 00:50:05;;;;;;;642.53;576.63;;;;;;;;;;6219512;23;20024;-94
2023/10/16 00:52:31;;;;;;;634.92;568.45;;;;;;;;;;6214426;23;20012;-94
2023/10/16 00:55:00;;;;;;;600.88;540.90;;;;;;;;;;6222777;23;20015;-94
2023/10/16 00:57:33;;;;;;;631.88;567.35;;;;;;;;;;6245528;23;20062;-94
2023/10/16 00:59:59;;;;;;;594.50;533.55;;;;;;;;;;6245334;23;20004;-94
2023/10/16 01:02:31;;;;;;;571.58;514.60;;;;;;;;;;6245488;23;20335;-94
2023/10/16 01:05:29;;;;;;;589.92;530.97;;;;;;;;;;6244906;23;20004;-93
2023/10/16 01:08:05;;;;;;;630.67;566.17;;;;;;;;;;6244186;23;20011;-94
2023/10/16 01:10:48;;;;;;;635.08;569.53;;;;;;;;;;6245727;23;20008;-94
2023/10/16 01:13:17;;;;;;;608.47;543.30;;;;;;;;;;6245385;23;20005;-94
2023/10/16 01:15:46;;;;;;;619.10;555.33;;;;;;;;;;6245095;23;20004;-93
2023/10/16 01:18:18;;;;;;;612.60;550.08;;;;;;;;;;6243297;23;20008;-93
2023/10/16 01:20:55;;;;;;;629.58;565.45;;;;;;;;;;6244727;23;20040;-94
2023/10/16 01:26:20;;;;;;;636.30;570.28;;;;;;;;;;6246056;22;20000;-93
2023/10/16 01:28:46;;;;;;;630.60;565.50;;;;;;;;;;6246329;23;20012;-94
2023/10/16 01:31:13;;;;;;;624.97;561.05;;;;;;;;;;6245475;23;20004;-94
2023/10/16 01:33:44;;;;;;;634.40;569.30;;;;;;;;;;6241338;23;20389;-94
2023/10/16 01:36:10;;;;;;;613.53;550.13;;;;;;;;;;6243295;23;20004;-94
2023/10/16 01:38:43;;;;;;;602.83;541.22;;;;;;;;;;6247092;23;20004;-91
2023/10/16 01:41:18;;;;;;;635.47;569.97;;;;;;;;;;6215837;23;20009;-93
2023/10/16 01:43:51;;;;;;;606.90;546.17;;;;;;;;;;6211475;23;20007;-94
2023/10/16 01:46:20;;;;;;;631.85;566.85;;;;;;;;;;6216399;23;20442;-95
2023/10/16 01:48:49;;;;;;;606.92;544.33;;;;;;;;;;6215754;23;20067;-94
2023/10/16 01:51:27;;;;;;;650.50;583.78;;;;;;;;;;6216361;23;20000;-94
2023/10/16 01:53:55;;;;;;;634.42;569.08;;;;;;;;;;6215870;23;20040;-94
2023/10/16 01:56:24;;;;;;;609.42;547.22;;;;;;;;;;6215240;23;20087;-94
2023/10/16 01:58:52;;;;;;;631.78;568.25;;;;;;;;;;6216003;23;20024;-95
2023/10/16 02:01:36;;;;;;;651.17;583.38;;;;;;;;;;6215393;23;20000;-95
2023/10/16 02:04:22;;;;;;;575.65;516.83;;;;;;;;;;6216212;23;20860;-95
2023/10/16 02:06:52;;;;;;;650.17;582.92;;;;;;;;;;6215931;23;20016;-94
2023/10/16 02:09:24;;;;;;;646.33;579.95;;;;;;;;;;6215238;23;20434;-93
2023/10/16 02:11:53;;;;;;;633.35;568.00;;;;;;;;;;6227715;23;20008;-95
2023/10/16 02:14:20;;;;;;;651.00;586.20;;;;;;;;;;6246951;23;20043;-94
2023/10/16 02:16:47;;;;;;;612.78;553.03;;;;;;;;;;6238857;23;20011;-95
2023/10/16 02:19:22;;;;;;;619.65;556.97;;;;;;;;;;6247053;23;20001;-94
2023/10/16 02:21:54;;;;;;;613.45;552.42;;;;;;;;;;6246930;23;20465;-93
2023/10/16 02:24:28;;;;;;;591.70;530.17;;;;;;;;;;6246856;23;20066;-93
2023/10/16 02:30:00;;;;;;;579.92;516.30;;;;;;;;;;6252733;23;20006;-95
2023/10/16 02:32:29;;;;;;;668.05;595.03;;;;;;;;;;6247373;22;20516;-93
2023/10/16 02:35:02;;;;;;;677.42;602.97;;;;;;;;;;6227623;23;20438;-94
2023/10/16 02:37:31;;;;;;;643.60;573.10;;;;;;;;;;6232895;23;20010;-94
2023/10/16 02:40:08;;;;;;;698.88;620.40;;;;;;;;;;6237738;23;20059;-93
2023/10/16 02:42:34;;;;;;;602.60;535.42;;;;;;;;;;6221982;23;20008;-93
2023/10/16 02:45:24;;;;;;;682.97;609.47;;;;;;;;;;6220106;23;20004;-93
2023/10/16 02:48:02;;;;;;;656.67;585.75;;;;;;;;;;6219093;23;20046;-93
2023/10/16 02:50:29;;;;;;;716.13;614.95;;;;;;;;;;6219961;23;20008;-93
2023/10/16 02:53:01;;;;;;;776.85;691.67;;;;;;;;;;6246536;23;20004;-94
2023/10/16 02:55:33;;;;;;;714.67;636.10;;;;;;;;;;6246465;23;20008;-94
2023/10/16 02:58:07;;;;;;;735.22;654.38;;;;;;;;;;6246743;23;20004;-94
2023/10/16 03:00:43;;;;;;;726.42;626.17;;;;;;;;;;6246097;23;20008;-94
2023/10/16 03:03:14;;;;;;;632.75;558.67;;;;;;;;;;6244320;23;20004;-94
2023/10/16 03:08:22;;;;;;;768.08;652.88;;;;;;;;;;6336241;22;20058;-93
2023/10/16 03:10:52;;;;;;;694.25;615.00;;;;;;;;;;6294503;22;20006;-94
2023/10/16 03:13:24;;;;;;;724.47;637.75;;;;;;;;;;6290983;22;20029;-95
2023/10/16 03:16:05;;;;;;;699.15;581.97;;;;;;;;;;6282216;22;19999;-94
2023/10/16 03:18:32;;;;;;;594.83;521.10;;;;;;;;;;6282245;22;20337;-93
2023/10/16 03:21:26;;;;;;;700.75;619.03;;;;;;;;;;6281976;22;20004;-94
2023/10/16 03:26:42;;;;;;;717.65;613.10;;;;;;;;;;6155399;23;20006;-93
2023/10/16 03:29:11;;;;;;;706.33;618.97;;;;;;;;;;6257555;22;20074;-92
2023/10/16 03:31:44;;;;;;;701.70;614.58;;;;;;;;;;6281876;22;20078;-95
2023/10/16 03:34:15;;;;;;;697.95;608.90;;;;;;;;;;6282040;22;20052;-94
2023/10/16 03:36:42;;;;;;;664.85;592.63;;;;;;;;;;6281847;22;19999;-92
2023/10/16 03:39:18;;;;;;;758.28;645.60;;;;;;;;;;6281749;22;20084;-93
2023/10/16 03:42:04;;;;;;;;;;;;;;;;;;;;;
2023/10/16 03:44:42;;;;;;;643.40;571.92;;;;;;;;;;6308833;22;20107;-93
2023/10/16 03:47:08;;;;;;;670.67;597.20;;;;;;;;;;6282596;22;20060;-93
2023/10/16 03:49:41;;;;;;;643.85;575.42;;;;;;;;;;6283047;22;20042;-94
2023/10/16 03:52:08;;;;;;;622.65;555.20;;;;;;;;;;6281538;22;20436;-94
2023/10/16 03:54:44;;;;;;;620.10;554.72;;;;;;;;;;6286237;22;20066;-94
2023/10/16 03:57:20;;;;;;;662.53;592.28;;;;;;;;;;6281768;22;20003;-92
2023/10/16 03:59:51;;;;;;;670.10;597.28;;;;;;;;;;6281591;22;20086;-93
2023/10/16 04:02:23;;;;;;;630.88;565.60;;;;;;;;;;6281554;22;20388;-93
2023/10/16 04:04:54;;;;;;;646.15;577.42;;;;;;;;;;6281487;22;20037;-94
2023/10/16 04:07:26;;;;;;;669.30;597.97;;;;;;;;;;6277924;22;20086;-94
2023/10/16 04:09:53;;;;;;;665.70;593.60;;;;;;;;;;6281356;22;20631;-95
2023/10/16 04:12:22;;;;;;;644.58;576.40;;;;;;;;;;6281570;22;20003;-95
2023/10/16 04:15:23;;;;;;;588.17;528.72;;;;;;;;;;6281339;22;20063;-94
2023/10/16 04:18:04;;;;;;;692.40;612.78;;;;;;;;;;6268151;22;20159;-94
2023/10/16 04:20:55;;;;;;;717.35;636.78;;;;;;;;;;6281607;22;20328;-94
2023/10/16 04:31:55;;;;;;;665.45;592.75;;;;;;;;;;6335468;22;20014;-92
2023/10/16 04:50:37;;;;;;;661.85;589.08;;;;;;;;;;6309237;22;20011;-93
2023/10/16 04:53:07;;;;;;;640.53;562.53;;;;;;;;;;6281480;22;20064;-94
2023/10/16 05:06:49;;;;;;;671.20;592.65;;;;;;;;;;6155795;23;20013;-95
2023/10/16 05:17:22;;;;;;;722.70;624.95;;;;;;;;;;6321157;22;20038;-92
2023/10/16 05:19:54;;;;;;;723.35;618.00;;;;;;;;;;6283829;22;20007;-92
2023/10/16 06:14:57;;;;;;;204.60;189.90;;;;;;;;;;6310587;22;20068;-95
2023/10/16 06:17:30;;;;;;;204.10;189.18;;;;;;;;;;6278688;22;20003;-94
2023/10/16 06:19:56;;;;;;;202.02;187.75;;;;;;;;;;6297690;22;20026;-94
2023/10/16 06:22:25;;;;;;;207.80;193.00;;;;;;;;;;6298631;22;20029;-93
2023/10/16 06:24:52;;;;;;;150.88;140.43;;;;;;;;;;6292087;22;20003;-94
2023/10/16 06:30:19;;;;;;;141.10;131.40;;;;;;;;;;6320195;22;20019;-95
2023/10/16 06:35:48;;;;;;;52.63;49.07;;;;;;;;;;6248089;22;20011;-95
2023/10/16 06:38:20;;;;;;;53.70;50.15;;;;;;;;;;6221612;23;20000;-94
2023/10/16 06:41:11;;;;;;;49.78;46.63;;;;;;;;;;6185071;23;20429;-95
2023/10/16 06:44:00;;;;;;;54.63;50.90;;;;;;;;;;6185284;23;20040;-95
2023/10/16 06:46:45;;;;;;;58.38;54.70;;;;;;;;;;6184633;23;20001;-94
2023/10/16 06:49:26;;;;;;;66.10;61.63;;;;;;;;;;6185573;23;20115;-94
2023/10/16 06:52:13;;;;;;;71.65;66.97;;;;;;;;;;6189068;23;20020;-94
2023/10/16 06:54:51;;;;;;;64.15;59.90;;;;;;;;;;6185073;23;20080;-95
2023/10/16 06:57:51;;;;;;;109.00;101.20;;;;;;;;;;6160316;23;20167;-96
2023/10/16 07:06:14;;;;;;;72.82;67.88;;;;;;;;;;6155586;23;20060;-94
2023/10/16 07:11:42;;;;;;;72.28;66.80;;;;;;;;;;6156317;23;20471;-95
2023/10/16 07:17:13;;;;;;;89.65;83.90;;;;;;;;;;6156611;23;20077;-95
2023/10/16 07:23:20;;;;;;;78.70;73.40;;;;;;;;;;6155617;23;20040;-93
2023/10/16 07:25:56;;;;;;;87.85;81.80;;;;;;;;;;6130879;23;20002;-92
2023/10/16 07:28:29;;;;;;;81.05;75.55;;;;;;;;;;6158670;23;20087;-94
2023/10/16 07:31:17;;;;;;;84.57;78.70;;;;;;;;;;6190878;23;20131;-93
2023/10/16 07:33:54;;;;;;;100.88;93.82;;;;;;;;;;6257321;22;20049;-92
2023/10/16 07:36:23;;;;;;;61.05;57.05;;;;;;;;;;6281203;22;20080;-94
2023/10/16 07:38:50;;;;;;;93.22;86.55;;;;;;;;;;6282391;22;20010;-94
2023/10/16 07:41:23;;;;;;;88.78;82.68;;;;;;;;;;6265532;22;20007;-94
2023/10/16 07:43:56;;;;;;;90.40;84.07;;;;;;;;;;6281950;22;20007;-93
2023/10/16 07:46:36;;;;;;;99.20;92.18;;;;;;;;;;6282159;22;20038;-92
2023/10/16 07:49:09;;;;;;;71.75;66.50;;;;;;;;;;6281918;22;20041;-93
2023/10/16 07:51:35;;;;;;;151.40;139.43;;;;;;;;;;6282334;22;19999;-94
2023/10/16 07:54:06;;;;;;;90.22;84.00;;;;;;;;;;6281680;22;20074;-93
2023/10/16 07:56:52;;;;;;;71.50;66.70;;;;;;;;;;6281897;22;20092;-94
2023/10/16 08:05:15;;;;;;;88.63;82.72;;;;;;;;;;6309030;22;20034;-95
2023/10/16 08:07:53;;;;;;;87.28;81.32;;;;;;;;;;6281737;22;20015;-92
2023/10/16 08:13:34;;;;;;;81.57;75.70;;;;;;;;;;6164567;23;19990;-89
2023/10/16 08:16:06;;;;;;;103.70;96.70;;;;;;;;;;6138571;23;20041;-93
2023/10/16 08:18:32;;;;;;;64.57;60.28;;;;;;;;;;6129915;23;20149;-93
2023/10/16 08:21:06;;;;;;;81.20;75.57;;;;;;;;;;6129267;23;20002;-92
2023/10/16 08:23:45;;;;;;;87.47;81.35;;;;;;;;;;6130416;23;20354;-93
2023/10/16 08:26:14;;;;;;;86.82;80.78;;;;;;;;;;6281891;22;19999;-94
2023/10/16 08:34:40;;;;;;;77.45;72.32;;;;;;;;;;6250351;22;20026;-94
2023/10/16 08:37:11;;;;;;;103.30;95.80;;;;;;;;;;6281784;22;20008;-96
2023/10/16 08:39:37;;;;;;;90.75;84.35;;;;;;;;;;6281873;22;20435;-94
2023/10/16 08:42:19;;;;;;;80.95;75.47;;;;;;;;;;6280867;22;20076;-95
2023/10/16 08:47:46;;;;;;;70.93;66.10;;;;;;;;;;6308835;22;20053;-95
2023/10/16 08:50:17;;;;;;;108.75;100.65;;;;;;;;;;6280653;22;20012;-94
2023/10/16 08:52:51;;;;;;;103.97;96.20;;;;;;;;;;6281994;22;20348;-94
2023/10/16 08:55:26;;;;;;;89.68;83.43;;;;;;;;;;6281384;22;20087;-94
2023/10/16 08:57:55;;;;;;;144.88;133.85;;;;;;;;;;6280806;22;20078;-94
2023/10/16 09:00:30;;;;;;;77.65;72.35;;;;;;;;;;6282435;22;20007;-92
2023/10/16 09:03:04;;;;;;;188.45;172.88;;;;;;;;;;6281591;22;19996;-94
2023/10/16 09:05:34;;;;;;;150.88;139.73;;;;;;;;;;6280234;22;20009;-94
2023/10/16 09:08:14;;;;;;;160.68;148.98;;;;;;;;;;6281167;22;20022;-94
2023/10/16 09:10:44;;;;;;;80.40;74.72;;;;;;;;;;6281920;22;20004;-94
2023/10/16 09:13:26;;;;;;;150.05;138.88;;;;;;;;;;6281272;22;20425;-92
2023/10/16 09:15:58;;;;;;;164.20;151.57;;;;;;;;;;6273910;22;19999;-91
2023/10/16 09:18:50;;;;;;;173.15;159.98;;;;;;;;;;6281543;22;20027;-93
2023/10/16 09:21:38;;;;;;;65.88;61.45;;;;;;;;;;6275792;22;20003;-93
2023/10/16 09:24:16;;;;;;;166.25;153.52;;;;;;;;;;6280179;22;20003;-91
2023/10/16 09:29:38;;;;;;;76.38;71.15;;;;;;;;;;6172759;22;20048;-94
2023/10/16 09:32:07;;;;;;;64.10;59.92;;;;;;;;;;6281683;22;20057;-92
2023/10/16 09:34:37;;;;;;;163.95;151.45;;;;;;;;;;6280590;22;20027;-93
2023/10/16 09:37:22;;;;;;;110.38;102.32;;;;;;;;;;6280920;22;20003;-90
2023/10/16 09:39:55;;;;;;;141.43;130.73;;;;;;;;;;6279380;22;20025;-93
2023/10/16 09:42:34;;;;;;;175.38;161.80;;;;;;;;;;6283899;22;20004;-92
2023/10/16 09:45:09;;;;;;;148.52;137.05;;;;;;;;;;6238158;22;20012;-90
2023/10/16 09:47:48;;;;;;;156.18;144.57;;;;;;;;;;6224064;23;20398;-93
2023/10/16 09:50:24;;;;;;;176.02;162.20;;;;;;;;;;6225017;23;20108;-92
2023/10/16 09:52:50;;;;;;;170.50;157.50;;;;;;;;;;6217834;23;20004;-91
2023/10/16 09:55:31;;;;;;;177.85;164.52;;;;;;;;;;6216665;23;20005;-94
2023/10/16 09:58:00;;;;;;;163.70;151.40;;;;;;;;;;6214858;23;20009;-93
2023/10/16 10:00:32;;;;;;;166.45;153.90;;;;;;;;;;6216126;23;20431;-93
2023/10/16 10:03:26;;;;;;;172.85;159.43;;;;;;;;;;6215838;23;20005;-92
2023/10/16 10:08:39;;;;;;;189.88;175.20;;;;;;;;;;6230733;22;19916;-93
2023/10/16 10:11:17;;;;;;;200.38;185.07;;;;;;;;;;6218619;23;20012;-92
2023/10/16 10:14:09;;;;;;;191.00;176.45;;;;;;;;;;6239057;23;19989;-92
2023/10/16 10:16:45;;;;;;;188.73;174.70;;;;;;;;;;6280944;22;20057;-92
2023/10/16 10:19:46;;;;;;;182.68;169.05;;;;;;;;;;6279604;22;20050;-93
2023/10/16 10:22:32;;;;;;;202.23;186.60;;;;;;;;;;6156482;22;20030;-93
2023/10/16 10:25:45;;;;;;;196.00;181.25;;;;;;;;;;6261471;22;20011;-96
2023/10/16 10:28:38;;;;;;;221.13;204.20;;;;;;;;;;6127204;23;20090;-94
2023/10/16 10:31:10;;;;;;;229.52;211.63;;;;;;;;;;6155070;23;20358;-94
2023/10/16 10:33:51;;;;;;;239.55;220.38;;;;;;;;;;6271296;22;20031;-93
2023/10/16 10:36:39;;;;;;;236.95;218.38;;;;;;;;;;6282430;22;20011;-90
2023/10/16 10:39:44;;;;;;;248.68;228.55;;;;;;;;;;6283098;22;20084;-93
2023/10/16 10:42:16;;;;;;;246.35;226.40;;;;;;;;;;6282747;22;20324;-92
2023/10/16 10:45:17;;;;;;;221.63;204.70;;;;;;;;;;6282643;22;20006;-92
2023/10/16 10:47:43;;;;;;;260.27;239.25;;;;;;;;;;6283088;22;20010;-91
2023/10/16 10:50:16;;;;;;;245.52;225.93;;;;;;;;;;6282579;22;20022;-92
2023/10/16 10:52:52;;;;;;;258.70;238.43;;;;;;;;;;6282595;22;20007;-93
2023/10/16 10:55:27;;;;;;;230.63;212.85;;;;;;;;;;6282283;22;20007;-92
2023/10/16 10:58:11;;;;;;;234.40;216.93;;;;;;;;;;6282683;22;20003;-91
2023/10/16 11:00:43;;;;;;;286.73;262.98;;;;;;;;;;6283092;22;20007;-92
2023/10/16 11:03:22;;;;;;;262.63;241.88;;;;;;;;;;6282730;22;20038;-91
2023/10/16 11:05:55;;;;;;;298.85;273.85;;;;;;;;;;6282310;22;20063;-91
2023/10/16 11:08:31;;;;;;;243.30;225.02;;;;;;;;;;6281841;22;20060;-92
2023/10/16 11:11:03;;;;;;;240.77;222.43;;;;;;;;;;6282700;22;20018;-91
2023/10/16 11:13:44;;;;;;;261.80;241.07;;;;;;;;;;6282330;22;20026;-92
2023/10/16 11:16:10;;;;;;;254.25;234.90;;;;;;;;;;6282556;22;20003;-92
2023/10/16 11:18:37;;;;;;;287.35;263.48;;;;;;;;;;6282707;22;20007;-92
2023/10/16 11:21:07;;;;;;;300.42;275.13;;;;;;;;;;6282688;22;20132;-92
2023/10/16 11:23:38;;;;;;;276.85;252.57;;;;;;;;;;6281240;22;20027;-91
2023/10/16 11:26:12;;;;;;;307.95;282.35;;;;;;;;;;6282369;22;19999;-92
2023/10/16 11:28:38;;;;;;;287.73;264.27;;;;;;;;;;6282079;22;20019;-92
2023/10/16 11:31:11;;;;;;;287.50;264.08;;;;;;;;;;6282098;22;20007;-93
2023/10/16 11:34:00;;;;;;;282.10;259.83;;;;;;;;;;6282365;22;20013;-93
2023/10/16 11:36:42;;;;;;;290.70;266.95;;;;;;;;;;6278983;22;20082;-94
2023/10/16 11:39:20;;;;;;;314.23;286.48;;;;;;;;;;6282045;22;20098;-94
2023/10/16 11:41:54;;;;;;;292.05;268.80;;;;;;;;;;6282781;22;20003;-94
2023/10/16 11:44:32;;;;;;;313.95;288.20;;;;;;;;;;6258187;22;19999;-94
2023/10/16 11:47:02;;;;;;;271.95;250.70;;;;;;;;;;6282491;22;20018;-94
2023/10/16 11:50:17;;;;;;;258.35;238.07;;;;;;;;;;6281898;22;20018;-94
2023/10/16 11:52:35;;;;;;;270.80;249.45;;;;;;;;;;6289356;22;20429;-95
2023/10/16 11:55:10;;;;;;;297.58;273.17;;;;;;;;;;6280711;22;20007;-95
2023/10/16 11:57:37;;;;;;;299.73;274.90;;;;;;;;;;6282432;22;20003;-94
2023/10/16 12:00:18;;;;;;;302.02;277.42;;;;;;;;;;6297698;22;19999;-94
2023/10/16 12:02:49;;;;;;;312.77;287.42;;;;;;;;;;6285823;22;20022;-92
2023/10/16 12:05:18;;;;;;;312.73;286.75;;;;;;;;;;6280491;22;20142;-94
2023/10/16 12:07:52;;;;;;;299.25;273.95;;;;;;;;;;6280998;22;20019;-94
2023/10/16 12:13:49;;;;;;;300.23;275.80;;;;;;;;;;6215046;23;20070;-93
2023/10/16 12:16:26;;;;;;;292.33;269.15;;;;;;;;;;6214295;23;20028;-94
2023/10/16 12:19:16;;;;;;;279.95;257.50;;;;;;;;;;6214702;23;20507;-93
2023/10/16 12:21:55;;;;;;;299.55;275.63;;;;;;;;;;6176639;23;20000;-94
2023/10/16 12:24:22;;;;;;;271.65;249.98;;;;;;;;;;6214659;23;20004;-96
2023/10/16 12:29:55;;;;;;;321.45;293.67;;;;;;;;;;6184399;23;20115;-94
2023/10/16 12:32:56;;;;;;;304.58;279.42;;;;;;;;;;6184671;23;20009;-93
2023/10/16 12:35:25;;;;;;;290.08;266.38;;;;;;;;;;6182574;23;20040;-94
2023/10/16 12:37:55;;;;;;;291.85;268.15;;;;;;;;;;6183431;23;20001;-94
2023/10/16 12:40:28;;;;;;;262.08;241.75;;;;;;;;;;6190654;23;20129;-93
2023/10/16 12:43:15;;;;;;;324.40;297.90;;;;;;;;;;6219701;23;20008;-93
2023/10/16 12:45:44;;;;;;;273.10;251.48;;;;;;;;;;6219618;23;20011;-93
2023/10/16 12:48:11;;;;;;;329.40;301.65;;;;;;;;;;6219636;23;20004;-94
2023/10/16 12:50:39;;;;;;;315.40;288.65;;;;;;;;;;6220021;23;20008;-94
2023/10/16 12:58:52;;;;;;;354.75;324.98;;;;;;;;;;6240725;23;20031;-95
2023/10/16 13:01:21;;;;;;;324.65;297.83;;;;;;;;;;6219263;23;20366;-94
2023/10/16 13:03:50;;;;;;;332.55;304.38;;;;;;;;;;6214576;23;20004;-93
2023/10/16 13:06:19;;;;;;;315.08;290.10;;;;;;;;;;6215434;23;20008;-93
2023/10/16 13:08:47;;;;;;;317.48;291.83;;;;;;;;;;6206429;23;20515;-91
2023/10/16 13:11:19;;;;;;;314.13;287.92;;;;;;;;;;6221947;23;20095;-91
2023/10/16 13:13:48;;;;;;;307.70;282.38;;;;;;;;;;6223984;23;20009;-92
2023/10/16 13:16:24;;;;;;;322.58;295.77;;;;;;;;;;6215414;23;20092;-93
2023/10/16 13:18:57;;;;;;;288.95;267.10;;;;;;;;;;6214873;23;20000;-91
2023/10/16 13:21:32;;;;;;;311.92;286.85;;;;;;;;;;6215645;23;20478;-91
2023/10/16 13:24:20;;;;;;;289.40;266.67;;;;;;;;;;6215951;23;20043;-93
2023/10/16 13:26:52;;;;;;;290.73;267.58;;;;;;;;;;6215153;23;20009;-92
2023/10/16 13:29:21;;;;;;;295.98;272.50;;;;;;;;;;6215529;23;20311;-93
2023/10/16 13:31:48;;;;;;;343.15;314.48;;;;;;;;;;6216056;23;20066;-91
2023/10/16 13:34:20;;;;;;;324.48;297.38;;;;;;;;;;6217252;23;20029;-91
2023/10/16 13:37:10;;;;;;;327.50;300.80;;;;;;;;;;6217249;23;20005;-92
2023/10/16 13:39:40;;;;;;;313.33;288.35;;;;;;;;;;6217283;23;20013;-92
2023/10/16 13:42:08;;;;;;;319.13;293.00;;;;;;;;;;6185977;23;20008;-92
2023/10/16 13:44:38;;;;;;;346.42;317.38;;;;;;;;;;6161305;23;20021;-91
2023/10/16 13:47:08;;;;;;;295.08;271.92;;;;;;;;;;6161713;23;20005;-92
2023/10/16 13:50:00;;;;;;;330.45;303.80;;;;;;;;;;6160757;23;20025;-92
2023/10/16 13:52:32;;;;;;;334.13;308.05;;;;;;;;;;6171501;23;20080;-92
2023/10/16 13:54:58;;;;;;;315.75;290.35;;;;;;;;;;6170074;23;20001;-92
2023/10/16 13:57:29;;;;;;;368.08;336.73;;;;;;;;;;6163373;23;20017;-92
2023/10/16 13:59:59;;;;;;;257.80;238.38;;;;;;;;;;6161850;23;20036;-92
2023/10/16 14:02:37;;;;;;;290.90;268.30;;;;;;;;;;6165173;23;20008;-93
2023/10/16 14:05:13;;;;;;;330.38;304.90;;;;;;;;;;6161376;23;20006;-93
2023/10/16 14:07:47;;;;;;;305.58;281.58;;;;;;;;;;6178752;23;20024;-93
2023/10/16 14:10:21;;;;;;;307.98;283.02;;;;;;;;;;6173841;23;20017;-92
2023/10/16 14:12:58;;;;;;;304.90;281.75;;;;;;;;;;6179756;23;20373;-93
2023/10/16 14:15:32;;;;;;;355.88;326.00;;;;;;;;;;6217098;23;20008;-93
2023/10/16 14:17:59;;;;;;;272.85;252.77;;;;;;;;;;6218040;23;20434;-94
2023/10/16 14:32:37;;;;;;;290.20;268.23;;;;;;;;;;6097954;23;20547;-91
2023/10/16 14:35:12;;;;;;;311.00;287.17;;;;;;;;;;6162826;23;20004;-94
2023/10/16 14:37:44;;;;;;;283.92;261.33;;;;;;;;;;6217029;23;20001;-91
2023/10/16 14:40:15;;;;;;;277.50;255.35;;;;;;;;;;6217902;23;20082;-93
2023/10/16 14:42:41;;;;;;;238.43;220.82;;;;;;;;;;6216921;23;20449;-94
2023/10/16 14:45:07;;;;;;;300.60;276.73;;;;;;;;;;6216716;23;20028;-91
2023/10/16 14:47:36;;;;;;;334.05;307.85;;;;;;;;;;6216818;23;20430;-92
2023/10/16 14:50:09;;;;;;;341.80;314.63;;;;;;;;;;6216254;23;20032;-93
2023/10/16 14:52:38;;;;;;;416.45;379.50;;;;;;;;;;6217345;23;20008;-94
2023/10/16 14:55:25;;;;;;;346.30;318.58;;;;;;;;;;6217041;23;20004;-94
2023/10/16 14:57:51;;;;;;;334.88;308.73;;;;;;;;;;6216667;23;20019;-92
2023/10/16 15:00:57;;;;;;;390.83;358.27;;;;;;;;;;6216145;23;20004;-93
2023/10/16 15:03:16;;;;;;;334.25;307.50;;;;;;;;;;6212536;23;20505;-93
2023/10/16 15:05:49;;;;;;;294.67;272.98;;;;;;;;;;6216821;23;20000;-92
2023/10/16 15:08:16;;;;;;;417.13;381.90;;;;;;;;;;6215444;23;20012;-92
2023/10/16 15:10:47;;;;;;;284.83;262.33;;;;;;;;;;6216177;23;20008;-92
2023/10/16 15:13:17;;;;;;;300.10;277.67;;;;;;;;;;6215422;23;20008;-92
2023/10/16 15:15:50;;;;;;;299.27;276.40;;;;;;;;;;6216230;23;20011;-93
2023/10/16 15:18:52;;;;;;;313.60;289.73;;;;;;;;;;6185806;23;20016;-96
2023/10/16 15:21:19;;;;;;;267.65;248.57;;;;;;;;;;6130827;23;20040;-93
2023/10/16 15:23:48;;;;;;;285.45;262.55;;;;;;;;;;6160400;23;20016;-94
2023/10/16 15:26:14;;;;;;;309.65;286.90;;;;;;;;;;6160005;23;20430;-93
2023/10/16 15:28:43;;;;;;;353.48;326.25;;;;;;;;;;6159934;23;20136;-91
2023/10/16 15:31:09;;;;;;;273.38;253.00;;;;;;;;;;6160126;23;20005;-91
2023/10/16 15:33:38;;;;;;;324.48;298.70;;;;;;;;;;6160021;23;20028;-91
2023/10/16 15:36:06;;;;;;;371.02;341.08;;;;;;;;;;6160109;23;20146;-90
2023/10/16 15:38:37;;;;;;;313.65;287.90;;;;;;;;;;6160231;23;20058;-91
2023/10/16 15:41:08;;;;;;;276.50;255.02;;;;;;;;;;6160091;23;20005;-92
2023/10/16 15:43:35;;;;;;;264.25;242.60;;;;;;;;;;6161039;23;20012;-92
2023/10/16 15:46:02;;;;;;;318.90;294.58;;;;;;;;;;6171622;23;20013;-93
2023/10/16 15:48:33;;;;;;;272.73;251.30;;;;;;;;;;6169776;23;20016;-94
2023/10/16 15:51:08;;;;;;;374.17;344.95;;;;;;;;;;6215953;23;20008;-93
2023/10/16 15:53:39;;;;;;;296.38;272.05;;;;;;;;;;6216016;23;20470;-92
2023/10/16 15:56:08;;;;;;;358.10;330.17;;;;;;;;;;6215480;23;20039;-93
2023/10/16 15:58:34;;;;;;;330.27;302.85;;;;;;;;;;6215663;23;20162;-93
2023/10/16 16:01:05;;;;;;;289.15;266.27;;;;;;;;;;6217084;23;20139;-93
2023/10/16 16:03:42;;;;;;;331.50;303.17;;;;;;;;;;6235323;23;20081;-93
2023/10/16 16:06:19;;;;;;;369.95;338.00;;;;;;;;;;6235843;23;20032;-92
2023/10/16 16:08:46;;;;;;;362.75;332.35;;;;;;;;;;6239038;23;20059;-93
2023/10/16 16:11:19;;;;;;;364.23;331.20;;;;;;;;;;6222183;23;20010;-93
2023/10/16 16:13:45;;;;;;;375.40;340.00;;;;;;;;;;6211923;23;20004;-93
2023/10/16 16:16:12;;;;;;;367.75;334.17;;;;;;;;;;6215631;23;20087;-92
2023/10/16 16:18:38;;;;;;;400.45;360.13;;;;;;;;;;6216260;23;20043;-94
2023/10/16 16:21:13;;;;;;;419.90;379.95;;;;;;;;;;6215571;23;20000;-92
2023/10/16 16:23:43;;;;;;;451.83;406.63;;;;;;;;;;6220465;22;20020;-92
2023/10/16 16:26:13;;;;;;;438.63;394.23;;;;;;;;;;6220155;23;20540;-92
2023/10/16 16:28:45;;;;;;;457.67;411.38;;;;;;;;;;6220602;23;20099;-92
2023/10/16 16:31:15;;;;;;;546.45;494.00;;;;;;;;;;6220073;23;20511;-92
2023/10/16 16:33:50;;;;;;;483.48;434.52;;;;;;;;;;6220684;23;20007;-92
2023/10/16 16:36:22;;;;;;;575.78;519.85;;;;;;;;;;6219920;23;20015;-92
2023/10/16 16:38:55;;;;;;;550.88;495.73;;;;;;;;;;6220846;23;20087;-92
2023/10/16 16:44:14;;;;;;;569.92;514.00;;;;;;;;;;6125962;23;20056;-91
2023/10/16 16:46:47;;;;;;;475.08;427.42;;;;;;;;;;6205160;23;20426;-90
2023/10/16 16:49:13;;;;;;;489.20;439.38;;;;;;;;;;6220569;23;20016;-90
2023/10/16 16:51:45;;;;;;;552.78;498.13;;;;;;;;;;6220249;23;20004;-93
2023/10/16 16:54:21;;;;;;;523.95;470.90;;;;;;;;;;6220238;23;20004;-91
2023/10/16 16:56:48;;;;;;;552.83;495.33;;;;;;;;;;6221247;23;20008;-91
2023/10/16 16:59:20;;;;;;;573.38;515.90;;;;;;;;;;6220718;23;20019;-92
2023/10/16 17:05:24;;;;;;;580.35;521.50;;;;;;;;;;6066568;23;20018;-91
2023/10/16 17:07:51;;;;;;;569.90;512.78;;;;;;;;;;6067824;23;20002;-91
2023/10/16 17:10:37;;;;;;;591.90;531.47;;;;;;;;;;6205844;23;20012;-91
2023/10/16 17:13:06;;;;;;;592.33;532.63;;;;;;;;;;6222624;23;20035;-90
2023/10/16 17:15:38;;;;;;;641.88;576.08;;;;;;;;;;6222359;23;20039;-91
2023/10/16 17:18:12;;;;;;;621.13;557.40;;;;;;;;;;6222245;23;20008;-91
2023/10/16 17:20:50;;;;;;;647.58;581.05;;;;;;;;;;6221529;23;20000;-91
2023/10/16 17:23:17;;;;;;;633.80;568.88;;;;;;;;;;6222550;23;20023;-91
2023/10/16 17:25:46;;;;;;;642.50;575.75;;;;;;;;;;6222220;23;20010;-93
2023/10/16 17:28:16;;;;;;;634.55;569.08;;;;;;;;;;6222251;23;20372;-93
2023/10/16 17:30:42;;;;;;;642.45;574.25;;;;;;;;;;6222245;23;20058;-91
2023/10/16 17:33:29;;;;;;;650.45;583.67;;;;;;;;;;6222629;23;20006;-90
2023/10/16 17:36:05;;;;;;;669.80;599.45;;;;;;;;;;6223084;23;20004;-93
2023/10/16 17:38:42;;;;;;;686.13;612.20;;;;;;;;;;6223700;23;20004;-94